sensor_id;sensor_type;location;lat;lon;timestamp;P1;durP1;ratioP1;P2;durP2;ratioP2
20928;SDS011;21895;47.072;15.132;2023-05-07T00:01:23;9.90;;;5.78;;
20928;SDS011;21895;47.072;15.132;2023-05-07T00:03:50;9.43;;;5.37;;
20928;SDS011;21895;47.072;15.132;2023-05-07T00:06:17;9.93;;;3.95;;
20928;SDS011;21895;47.072;15.132;2023-05-07T00:08:43;5.87;;;4.40;;
20928;SDS011;21895;47.072;15.132;2023-05-07T00:11:10;8.98;;;3.92;;
20928;SDS011;21895;47.072;15.132;2023-05-07T00:13:36;5.10;;;3.60;;
20928;SDS011;21895;47.072;15.132;2023-05-07T00:16:03;4.70;;;3.47;;
20928;SDS011;21895;47.072;15.132;2023-05-07T00:18:30;8.93;;;4.78;;
20928;SDS011;21895;47.072;15.132;2023-05-07T00:20:57;10.57;;;4.77;;
20928;SDS011;21895;47.072;15.132;2023-05-07T00:23:23;7.00;;;4.55;;
20928;SDS011;21895;47.072;15.132;2023-05-07T00:25:50;7.00;;;4.67;;
20928;SDS011;21895;47.072;15.132;2023-05-07T00:28:16;10.90;;;4.50;;
20928;SDS011;21895;47.072;15.132;2023-05-07T00:30:43;4.77;;;3.80;;
20928;SDS011;21895;47.072;15.132;2023-05-07T00:33:09;6.17;;;4.23;;
20928;SDS011;21895;47.072;15.132;2023-05-07T00:35:36;7.72;;;3.87;;
20928;SDS011;21895;47.072;15.132;2023-05-07T00:38:02;5.83;;;4.07;;
20928;SDS011;21895;47.072;15.132;2023-05-07T00:40:29;5.15;;;3.83;;
20928;SDS011;21895;47.072;15.132;2023-05-07T00:42:55;10.00;;;3.67;;
20928;SDS011;21895;47.072;15.132;2023-05-07T00:45:26;6.03;;;3.70;;
20928;SDS011;21895;47.072;15.132;2023-05-07T00:47:54;5.20;;;3.53;;
20928;SDS011;21895;47.072;15.132;2023-05-07T00:50:26;5.40;;;3.30;;
20928;SDS011;21895;47.072;15.132;2023-05-07T00:52:53;4.50;;;3.33;;
20928;SDS011;21895;47.072;15.132;2023-05-07T00:55:21;5.63;;;2.90;;
20928;SDS011;21895;47.072;15.132;2023-05-07T00:57:49;4.63;;;2.87;;
20928;SDS011;21895;47.072;15.132;2023-05-07T01:00:17;3.67;;;2.77;;
20928;SDS011;21895;47.072;15.132;2023-05-07T01:02:44;4.50;;;2.87;;
20928;SDS011;21895;47.072;15.132;2023-05-07T01:05:12;2.70;;;2.37;;
20928;SDS011;21895;47.072;15.132;2023-05-07T01:07:44;2.93;;;2.53;;
20928;SDS011;21895;47.072;15.132;2023-05-07T01:10:12;3.57;;;2.40;;
20928;SDS011;21895;47.072;15.132;2023-05-07T01:12:40;4.63;;;2.40;;
20928;SDS011;21895;47.072;15.132;2023-05-07T01:15:08;2.13;;;1.93;;
20928;SDS011;21895;47.072;15.132;2023-05-07T01:17:36;3.03;;;2.03;;
20928;SDS011;21895;47.072;15.132;2023-05-07T01:20:05;3.20;;;2.37;;
20928;SDS011;21895;47.072;15.132;2023-05-07T01:22:34;2.27;;;1.97;;
20928;SDS011;21895;47.072;15.132;2023-05-07T01:25:02;3.33;;;1.80;;
20928;SDS011;21895;47.072;15.132;2023-05-07T01:27:30;2.73;;;1.90;;
20928;SDS011;21895;47.072;15.132;2023-05-07T01:29:59;2.30;;;1.70;;
20928;SDS011;21895;47.072;15.132;2023-05-07T01:32:39;2.83;;;1.73;;
20928;SDS011;21895;47.072;15.132;2023-05-07T01:35:18;2.60;;;1.50;;
20928;SDS011;21895;47.072;15.132;2023-05-07T01:37:47;2.23;;;1.40;;
20928;SDS011;21895;47.072;15.132;2023-05-07T01:40:15;1.50;;;1.40;;
20928;SDS011;21895;47.072;15.132;2023-05-07T01:42:43;1.63;;;1.50;;
20928;SDS011;21895;47.072;15.132;2023-05-07T01:45:09;2.27;;;1.47;;
20928;SDS011;21895;47.072;15.132;2023-05-07T01:47:37;2.20;;;1.73;;
20928;SDS011;21895;47.072;15.132;2023-05-07T01:50:07;4.67;;;2.13;;
20928;SDS011;21895;47.072;15.132;2023-05-07T01:52:38;2.57;;;1.70;;
20928;SDS011;21895;47.072;15.132;2023-05-07T01:55:06;1.50;;;1.40;;
20928;SDS011;21895;47.072;15.132;2023-05-07T01:57:33;2.33;;;1.47;;
20928;SDS011;21895;47.072;15.132;2023-05-07T01:59:59;3.40;;;1.63;;
20928;SDS011;21895;47.072;15.132;2023-05-07T02:02:26;3.80;;;1.70;;
20928;SDS011;21895;47.072;15.132;2023-05-07T02:04:52;3.97;;;1.50;;
20928;SDS011;21895;47.072;15.132;2023-05-07T02:07:19;1.40;;;1.30;;
20928;SDS011;21895;47.072;15.132;2023-05-07T02:09:45;1.90;;;1.50;;
20928;SDS011;21895;47.072;15.132;2023-05-07T02:12:12;1.53;;;1.40;;
20928;SDS011;21895;47.072;15.132;2023-05-07T02:14:38;6.03;;;1.60;;
20928;SDS011;21895;47.072;15.132;2023-05-07T02:17:05;4.47;;;1.30;;
20928;SDS011;21895;47.072;15.132;2023-05-07T02:19:31;1.30;;;1.20;;
20928;SDS011;21895;47.072;15.132;2023-05-07T02:22:01;1.40;;;1.30;;
20928;SDS011;21895;47.072;15.132;2023-05-07T02:24:27;1.27;;;1.17;;
20928;SDS011;21895;47.072;15.132;2023-05-07T02:26:54;3.67;;;1.20;;
20928;SDS011;21895;47.072;15.132;2023-05-07T02:29:20;2.90;;;1.30;;
20928;SDS011;21895;47.072;15.132;2023-05-07T02:31:47;2.90;;;1.17;;
20928;SDS011;21895;47.072;15.132;2023-05-07T02:34:18;1.47;;;1.37;;
20928;SDS011;21895;47.072;15.132;2023-05-07T02:36:45;2.70;;;1.23;;
20928;SDS011;21895;47.072;15.132;2023-05-07T02:39:12;1.00;;;0.90;;
20928;SDS011;21895;47.072;15.132;2023-05-07T02:41:39;1.83;;;1.23;;
20928;SDS011;21895;47.072;15.132;2023-05-07T02:44:05;2.70;;;1.20;;
20928;SDS011;21895;47.072;15.132;2023-05-07T02:46:32;1.47;;;1.37;;
20928;SDS011;21895;47.072;15.132;2023-05-07T02:48:58;1.50;;;1.27;;
20928;SDS011;21895;47.072;15.132;2023-05-07T02:51:25;4.83;;;1.60;;
20928;SDS011;21895;47.072;15.132;2023-05-07T02:53:52;1.40;;;1.30;;
20928;SDS011;21895;47.072;15.132;2023-05-07T02:56:19;2.07;;;1.67;;
20928;SDS011;21895;47.072;15.132;2023-05-07T02:58:46;21.80;;;2.97;;
20928;SDS011;21895;47.072;15.132;2023-05-07T03:01:13;62.60;;;3.30;;
20928;SDS011;21895;47.072;15.132;2023-05-07T03:03:40;10.77;;;2.60;;
20928;SDS011;21895;47.072;15.132;2023-05-07T03:06:07;2.20;;;2.00;;
20928;SDS011;21895;47.072;15.132;2023-05-07T03:08:33;5.83;;;2.50;;
20928;SDS011;21895;47.072;15.132;2023-05-07T03:11:00;3.60;;;1.50;;
20928;SDS011;21895;47.072;15.132;2023-05-07T03:13:26;1.17;;;1.07;;
20928;SDS011;21895;47.072;15.132;2023-05-07T03:15:53;2.67;;;1.10;;
20928;SDS011;21895;47.072;15.132;2023-05-07T03:18:19;3.27;;;1.40;;
20928;SDS011;21895;47.072;15.132;2023-05-07T03:20:48;1.30;;;1.20;;
20928;SDS011;21895;47.072;15.132;2023-05-07T03:23:15;1.60;;;1.37;;
20928;SDS011;21895;47.072;15.132;2023-05-07T03:25:41;1.90;;;1.20;;
20928;SDS011;21895;47.072;15.132;2023-05-07T03:28:08;1.40;;;1.30;;
20928;SDS011;21895;47.072;15.132;2023-05-07T03:30:34;1.83;;;1.13;;
20928;SDS011;21895;47.072;15.132;2023-05-07T03:33:01;2.03;;;1.10;;
20928;SDS011;21895;47.072;15.132;2023-05-07T03:35:27;1.67;;;1.20;;
20928;SDS011;21895;47.072;15.132;2023-05-07T03:37:54;1.53;;;1.10;;
20928;SDS011;21895;47.072;15.132;2023-05-07T03:40:20;1.63;;;1.17;;
20928;SDS011;21895;47.072;15.132;2023-05-07T03:42:47;1.10;;;0.90;;
20928;SDS011;21895;47.072;15.132;2023-05-07T03:45:13;1.13;;;0.90;;
20928;SDS011;21895;47.072;15.132;2023-05-07T03:47:40;1.23;;;1.10;;
20928;SDS011;21895;47.072;15.132;2023-05-07T03:50:06;1.40;;;1.30;;
20928;SDS011;21895;47.072;15.132;2023-05-07T03:52:34;1.43;;;1.20;;
20928;SDS011;21895;47.072;15.132;2023-05-07T03:55:00;3.57;;;1.13;;
20928;SDS011;21895;47.072;15.132;2023-05-07T03:57:27;2.37;;;1.30;;
20928;SDS011;21895;47.072;15.132;2023-05-07T03:59:53;1.93;;;1.03;;
20928;SDS011;21895;47.072;15.132;2023-05-07T04:02:20;1.77;;;1.20;;
20928;SDS011;21895;47.072;15.132;2023-05-07T04:04:48;4.13;;;1.20;;
20928;SDS011;21895;47.072;15.132;2023-05-07T04:07:14;1.10;;;0.90;;
20928;SDS011;21895;47.072;15.132;2023-05-07T04:09:41;1.10;;;1.00;;
20928;SDS011;21895;47.072;15.132;2023-05-07T04:12:08;1.60;;;1.13;;
20928;SDS011;21895;47.072;15.132;2023-05-07T04:14:34;1.30;;;1.20;;
20928;SDS011;21895;47.072;15.132;2023-05-07T04:17:01;1.20;;;1.10;;
20928;SDS011;21895;47.072;15.132;2023-05-07T04:19:28;2.37;;;1.30;;
20928;SDS011;21895;47.072;15.132;2023-05-07T04:21:57;2.00;;;1.20;;
20928;SDS011;21895;47.072;15.132;2023-05-07T04:24:23;1.30;;;1.20;;
20928;SDS011;21895;47.072;15.132;2023-05-07T04:26:50;1.33;;;1.23;;
20928;SDS011;21895;47.072;15.132;2023-05-07T04:29:16;1.57;;;1.33;;
20928;SDS011;21895;47.072;15.132;2023-05-07T04:31:43;2.87;;;1.77;;
20928;SDS011;21895;47.072;15.132;2023-05-07T04:34:10;2.00;;;1.80;;
20928;SDS011;21895;47.072;15.132;2023-05-07T04:36:37;4.87;;;1.90;;
20928;SDS011;21895;47.072;15.132;2023-05-07T04:39:04;1.93;;;1.73;;
20928;SDS011;21895;47.072;15.132;2023-05-07T04:41:31;1.53;;;1.43;;
20928;SDS011;21895;47.072;15.132;2023-05-07T04:43:59;4.83;;;1.23;;
20928;SDS011;21895;47.072;15.132;2023-05-07T04:46:25;5.20;;;1.37;;
20928;SDS011;21895;47.072;15.132;2023-05-07T04:48:52;1.40;;;1.30;;
20928;SDS011;21895;47.072;15.132;2023-05-07T04:51:19;1.67;;;1.30;;
20928;SDS011;21895;47.072;15.132;2023-05-07T04:53:45;1.00;;;0.90;;
20928;SDS011;21895;47.072;15.132;2023-05-07T04:56:12;3.77;;;1.10;;
20928;SDS011;21895;47.072;15.132;2023-05-07T04:58:38;2.40;;;1.40;;
20928;SDS011;21895;47.072;15.132;2023-05-07T05:01:05;1.50;;;1.33;;
20928;SDS011;21895;47.072;15.132;2023-05-07T05:03:31;1.07;;;1.00;;
20928;SDS011;21895;47.072;15.132;2023-05-07T05:05:58;2.43;;;1.20;;
20928;SDS011;21895;47.072;15.132;2023-05-07T05:08:25;0.90;;;0.90;;
20928;SDS011;21895;47.072;15.132;2023-05-07T05:10:52;1.33;;;1.23;;
20928;SDS011;21895;47.072;15.132;2023-05-07T05:13:18;5.83;;;1.20;;
20928;SDS011;21895;47.072;15.132;2023-05-07T05:15:45;1.63;;;1.10;;
20928;SDS011;21895;47.072;15.132;2023-05-07T05:18:11;1.77;;;1.20;;
20928;SDS011;21895;47.072;15.132;2023-05-07T05:20:38;2.40;;;1.40;;
20928;SDS011;21895;47.072;15.132;2023-05-07T05:23:05;1.50;;;1.40;;
20928;SDS011;21895;47.072;15.132;2023-05-07T05:25:31;5.80;;;1.50;;
20928;SDS011;21895;47.072;15.132;2023-05-07T05:27:58;1.53;;;1.30;;
20928;SDS011;21895;47.072;15.132;2023-05-07T05:30:24;1.50;;;1.40;;
20928;SDS011;21895;47.072;15.132;2023-05-07T05:32:51;6.57;;;1.30;;
20928;SDS011;21895;47.072;15.132;2023-05-07T05:35:17;1.67;;;1.20;;
20928;SDS011;21895;47.072;15.132;2023-05-07T05:37:44;5.40;;;1.77;;
20928;SDS011;21895;47.072;15.132;2023-05-07T05:40:10;1.27;;;1.17;;
20928;SDS011;21895;47.072;15.132;2023-05-07T05:42:38;1.35;;;1.08;;
20928;SDS011;21895;47.072;15.132;2023-05-07T05:45:04;1.17;;;0.95;;
20928;SDS011;21895;47.072;15.132;2023-05-07T05:47:32;2.55;;;1.10;;
20928;SDS011;21895;47.072;15.132;2023-05-07T05:49:58;2.05;;;1.17;;
20928;SDS011;21895;47.072;15.132;2023-05-07T05:52:25;2.07;;;1.40;;
20928;SDS011;21895;47.072;15.132;2023-05-07T05:54:53;1.95;;;1.33;;
20928;SDS011;21895;47.072;15.132;2023-05-07T05:57:19;3.83;;;1.20;;
20928;SDS011;21895;47.072;15.132;2023-05-07T05:59:46;1.20;;;1.10;;
20928;SDS011;21895;47.072;15.132;2023-05-07T06:02:12;1.58;;;1.30;;
20928;SDS011;21895;47.072;15.132;2023-05-07T06:04:39;1.55;;;1.27;;
20928;SDS011;21895;47.072;15.132;2023-05-07T06:07:06;5.20;;;1.25;;
20928;SDS011;21895;47.072;15.132;2023-05-07T06:09:32;2.35;;;1.45;;
20928;SDS011;21895;47.072;15.132;2023-05-07T06:11:59;1.20;;;1.10;;
20928;SDS011;21895;47.072;15.132;2023-05-07T06:14:26;8.65;;;1.12;;
20928;SDS011;21895;47.072;15.132;2023-05-07T06:16:52;1.23;;;1.12;;
20928;SDS011;21895;47.072;15.132;2023-05-07T06:19:19;1.60;;;1.08;;
20928;SDS011;21895;47.072;15.132;2023-05-07T06:21:48;3.28;;;1.12;;
20928;SDS011;21895;47.072;15.132;2023-05-07T06:24:15;1.77;;;1.00;;
20928;SDS011;21895;47.072;15.132;2023-05-07T06:26:42;1.10;;;1.00;;
20928;SDS011;21895;47.072;15.132;2023-05-07T06:29:08;0.80;;;0.80;;
20928;SDS011;21895;47.072;15.132;2023-05-07T06:31:35;1.10;;;1.00;;
20928;SDS011;21895;47.072;15.132;2023-05-07T06:34:01;1.83;;;1.30;;
20928;SDS011;21895;47.072;15.132;2023-05-07T06:36:28;1.33;;;1.23;;
20928;SDS011;21895;47.072;15.132;2023-05-07T06:38:54;4.40;;;1.27;;
20928;SDS011;21895;47.072;15.132;2023-05-07T06:41:21;2.85;;;0.90;;
20928;SDS011;21895;47.072;15.132;2023-05-07T06:43:48;1.50;;;1.17;;
20928;SDS011;21895;47.072;15.132;2023-05-07T06:46:14;1.20;;;1.10;;
20928;SDS011;21895;47.072;15.132;2023-05-07T06:48:41;1.48;;;1.10;;
20928;SDS011;21895;47.072;15.132;2023-05-07T06:51:08;1.40;;;1.30;;
20928;SDS011;21895;47.072;15.132;2023-05-07T06:53:35;1.12;;;1.02;;
20928;SDS011;21895;47.072;15.132;2023-05-07T06:56:01;1.10;;;1.10;;
20928;SDS011;21895;47.072;15.132;2023-05-07T06:58:28;2.12;;;1.08;;
20928;SDS011;21895;47.072;15.132;2023-05-07T07:00:54;1.10;;;1.00;;
20928;SDS011;21895;47.072;15.132;2023-05-07T07:03:21;4.22;;;1.52;;
20928;SDS011;21895;47.072;15.132;2023-05-07T07:05:47;3.67;;;1.30;;
20928;SDS011;21895;47.072;15.132;2023-05-07T07:08:17;5.85;;;1.40;;
20928;SDS011;21895;47.072;15.132;2023-05-07T07:10:44;2.35;;;1.48;;
20928;SDS011;21895;47.072;15.132;2023-05-07T07:13:10;2.05;;;1.30;;
20928;SDS011;21895;47.072;15.132;2023-05-07T07:15:37;2.67;;;1.33;;
20928;SDS011;21895;47.072;15.132;2023-05-07T07:18:03;2.00;;;1.52;;
20928;SDS011;21895;47.072;15.132;2023-05-07T07:20:30;2.25;;;1.33;;
20928;SDS011;21895;47.072;15.132;2023-05-07T07:22:57;2.28;;;1.48;;
20928;SDS011;21895;47.072;15.132;2023-05-07T07:25:23;2.75;;;1.27;;
20928;SDS011;21895;47.072;15.132;2023-05-07T07:27:50;1.48;;;1.37;;
20928;SDS011;21895;47.072;15.132;2023-05-07T07:30:17;7.00;;;1.50;;
20928;SDS011;21895;47.072;15.132;2023-05-07T07:32:43;1.73;;;1.58;;
20928;SDS011;21895;47.072;15.132;2023-05-07T07:35:10;1.98;;;1.60;;
20928;SDS011;21895;47.072;15.132;2023-05-07T07:37:36;1.60;;;1.45;;
20928;SDS011;21895;47.072;15.132;2023-05-07T07:40:03;2.17;;;1.67;;
20928;SDS011;21895;47.072;15.132;2023-05-07T07:42:30;3.92;;;1.67;;
20928;SDS011;21895;47.072;15.132;2023-05-07T07:44:57;1.77;;;1.67;;
20928;SDS011;21895;47.072;15.132;2023-05-07T07:47:23;1.75;;;1.60;;
20928;SDS011;21895;47.072;15.132;2023-05-07T07:49:50;1.80;;;1.70;;
20928;SDS011;21895;47.072;15.132;2023-05-07T07:52:17;2.78;;;2.17;;
20928;SDS011;21895;47.072;15.132;2023-05-07T07:54:44;3.50;;;1.75;;
20928;SDS011;21895;47.072;15.132;2023-05-07T07:57:11;2.53;;;2.00;;
20928;SDS011;21895;47.072;15.132;2023-05-07T07:59:37;3.70;;;2.53;;
20928;SDS011;21895;47.072;15.132;2023-05-07T08:02:05;3.05;;;2.37;;
20928;SDS011;21895;47.072;15.132;2023-05-07T08:04:32;4.82;;;2.65;;
20928;SDS011;21895;47.072;15.132;2023-05-07T08:06:58;3.33;;;2.70;;
20928;SDS011;21895;47.072;15.132;2023-05-07T08:09:25;3.28;;;2.85;;
20928;SDS011;21895;47.072;15.132;2023-05-07T08:11:52;3.55;;;2.55;;
20928;SDS011;21895;47.072;15.132;2023-05-07T08:14:19;3.30;;;3.00;;
20928;SDS011;21895;47.072;15.132;2023-05-07T08:16:45;3.35;;;2.92;;
20928;SDS011;21895;47.072;15.132;2023-05-07T08:19:12;6.50;;;2.78;;
20928;SDS011;21895;47.072;15.132;2023-05-07T08:21:39;2.80;;;2.60;;
20928;SDS011;21895;47.072;15.132;2023-05-07T08:24:06;3.72;;;2.87;;
20928;SDS011;21895;47.072;15.132;2023-05-07T08:26:32;3.67;;;2.90;;
20928;SDS011;21895;47.072;15.132;2023-05-07T08:28:59;3.70;;;2.92;;
20928;SDS011;21895;47.072;15.132;2023-05-07T08:31:26;4.68;;;2.70;;
20928;SDS011;21895;47.072;15.132;2023-05-07T08:33:52;3.35;;;2.80;;
20928;SDS011;21895;47.072;15.132;2023-05-07T08:36:19;4.25;;;2.65;;
20928;SDS011;21895;47.072;15.132;2023-05-07T08:38:45;3.70;;;2.83;;
20928;SDS011;21895;47.072;15.132;2023-05-07T08:41:12;6.82;;;3.17;;
20928;SDS011;21895;47.072;15.132;2023-05-07T08:43:38;4.03;;;2.95;;
20928;SDS011;21895;47.072;15.132;2023-05-07T08:46:08;3.90;;;2.92;;
20928;SDS011;21895;47.072;15.132;2023-05-07T08:48:38;9.73;;;3.00;;
20928;SDS011;21895;47.072;15.132;2023-05-07T08:51:05;3.37;;;2.95;;
20928;SDS011;21895;47.072;15.132;2023-05-07T08:53:32;3.10;;;2.80;;
20928;SDS011;21895;47.072;15.132;2023-05-07T08:55:59;4.10;;;3.47;;
20928;SDS011;21895;47.072;15.132;2023-05-07T08:58:26;3.62;;;2.83;;
20928;SDS011;21895;47.072;15.132;2023-05-07T09:00:53;2.72;;;2.50;;
20928;SDS011;21895;47.072;15.132;2023-05-07T09:03:20;6.22;;;3.08;;
20928;SDS011;21895;47.072;15.132;2023-05-07T09:05:46;4.82;;;2.90;;
20928;SDS011;21895;47.072;15.132;2023-05-07T09:08:14;6.37;;;2.50;;
20928;SDS011;21895;47.072;15.132;2023-05-07T09:10:41;2.58;;;2.37;;
20928;SDS011;21895;47.072;15.132;2023-05-07T09:13:08;3.80;;;2.70;;
20928;SDS011;21895;47.072;15.132;2023-05-07T09:15:36;2.90;;;2.65;;
20928;SDS011;21895;47.072;15.132;2023-05-07T09:18:02;8.02;;;4.40;;
20928;SDS011;21895;47.072;15.132;2023-05-07T09:20:32;3.25;;;2.53;;
20928;SDS011;21895;47.072;15.132;2023-05-07T09:22:58;2.75;;;2.50;;
20928;SDS011;21895;47.072;15.132;2023-05-07T09:25:28;2.92;;;2.25;;
20928;SDS011;21895;47.072;15.132;2023-05-07T09:28:00;3.08;;;2.78;;
20928;SDS011;21895;47.072;15.132;2023-05-07T09:30:29;3.17;;;2.60;;
20928;SDS011;21895;47.072;15.132;2023-05-07T09:33:00;4.20;;;2.45;;
20928;SDS011;21895;47.072;15.132;2023-05-07T09:35:29;6.25;;;2.70;;
20928;SDS011;21895;47.072;15.132;2023-05-07T09:37:57;9.30;;;2.97;;
20928;SDS011;21895;47.072;15.132;2023-05-07T09:40:29;5.00;;;3.10;;
20928;SDS011;21895;47.072;15.132;2023-05-07T09:42:56;7.97;;;2.90;;
20928;SDS011;21895;47.072;15.132;2023-05-07T09:45:39;3.45;;;2.95;;
20928;SDS011;21895;47.072;15.132;2023-05-07T09:48:07;2.65;;;2.45;;
20928;SDS011;21895;47.072;15.132;2023-05-07T09:50:35;3.28;;;2.80;;
20928;SDS011;21895;47.072;15.132;2023-05-07T09:53:13;4.10;;;2.58;;
20928;SDS011;21895;47.072;15.132;2023-05-07T09:55:43;6.15;;;2.78;;
20928;SDS011;21895;47.072;15.132;2023-05-07T09:58:11;4.40;;;2.40;;
20928;SDS011;21895;47.072;15.132;2023-05-07T10:00:40;3.40;;;2.58;;
20928;SDS011;21895;47.072;15.132;2023-05-07T10:03:08;2.72;;;2.50;;
20928;SDS011;21895;47.072;15.132;2023-05-07T10:05:36;2.87;;;2.42;;
20928;SDS011;21895;47.072;15.132;2023-05-07T10:08:04;2.50;;;2.30;;
20928;SDS011;21895;47.072;15.132;2023-05-07T10:10:32;4.07;;;2.62;;
20928;SDS011;21895;47.072;15.132;2023-05-07T10:13:00;2.58;;;2.37;;
20928;SDS011;21895;47.072;15.132;2023-05-07T10:15:31;3.08;;;2.62;;
20928;SDS011;21895;47.072;15.132;2023-05-07T10:17:58;5.12;;;2.70;;
20928;SDS011;21895;47.072;15.132;2023-05-07T10:20:25;3.65;;;2.80;;
20928;SDS011;21895;47.072;15.132;2023-05-07T10:22:53;5.20;;;2.70;;
20928;SDS011;21895;47.072;15.132;2023-05-07T10:25:33;3.92;;;3.00;;
20928;SDS011;21895;47.072;15.132;2023-05-07T10:28:04;5.68;;;3.08;;
20928;SDS011;21895;47.072;15.132;2023-05-07T10:30:38;6.07;;;2.83;;
20928;SDS011;21895;47.072;15.132;2023-05-07T10:35:06;3.28;;;2.97;;
20928;SDS011;21895;47.072;15.132;2023-05-07T10:37:40;5.10;;;3.28;;
20928;SDS011;21895;47.072;15.132;2023-05-07T10:40:08;3.05;;;2.80;;
20928;SDS011;21895;47.072;15.132;2023-05-07T10:42:36;4.43;;;2.90;;
20928;SDS011;21895;47.072;15.132;2023-05-07T10:45:14;4.03;;;3.20;;
20928;SDS011;21895;47.072;15.132;2023-05-07T10:56:23;3.62;;;3.30;;
20928;SDS011;21895;47.072;15.132;2023-05-07T10:58:51;4.40;;;3.47;;
20928;SDS011;21895;47.072;15.132;2023-05-07T11:01:26;4.70;;;3.30;;
20928;SDS011;21895;47.072;15.132;2023-05-07T11:04:23;3.87;;;3.28;;
20928;SDS011;21895;47.072;15.132;2023-05-07T11:17:21;4.18;;;3.33;;
20928;SDS011;21895;47.072;15.132;2023-05-07T11:19:48;5.97;;;3.47;;
20928;SDS011;21895;47.072;15.132;2023-05-07T11:26:56;3.83;;;3.40;;
20928;SDS011;21895;47.072;15.132;2023-05-07T11:29:23;6.22;;;3.72;;
20928;SDS011;21895;47.072;15.132;2023-05-07T11:31:51;4.53;;;3.85;;
20928;SDS011;21895;47.072;15.132;2023-05-07T11:34:23;4.60;;;3.87;;
20928;SDS011;21895;47.072;15.132;2023-05-07T11:36:51;4.37;;;3.37;;
20928;SDS011;21895;47.072;15.132;2023-05-07T11:39:25;5.57;;;3.42;;
20928;SDS011;21895;47.072;15.132;2023-05-07T11:41:54;4.32;;;3.15;;
20928;SDS011;21895;47.072;15.132;2023-05-07T11:44:21;4.82;;;3.55;;
20928;SDS011;21895;47.072;15.132;2023-05-07T11:46:47;5.60;;;3.62;;
20928;SDS011;21895;47.072;15.132;2023-05-07T11:49:14;3.95;;;3.17;;
20928;SDS011;21895;47.072;15.132;2023-05-07T11:51:41;4.57;;;3.80;;
20928;SDS011;21895;47.072;15.132;2023-05-07T11:54:08;4.60;;;3.45;;
20928;SDS011;21895;47.072;15.132;2023-05-07T11:56:36;5.78;;;4.70;;
20928;SDS011;21895;47.072;15.132;2023-05-07T11:59:04;4.45;;;3.72;;
20928;SDS011;21895;47.072;15.132;2023-05-07T12:01:31;3.83;;;3.42;;
20928;SDS011;21895;47.072;15.132;2023-05-07T12:03:57;7.62;;;3.80;;
20928;SDS011;21895;47.072;15.132;2023-05-07T12:06:24;6.30;;;3.67;;
20928;SDS011;21895;47.072;15.132;2023-05-07T12:08:51;5.87;;;4.15;;
20928;SDS011;21895;47.072;15.132;2023-05-07T12:11:22;4.95;;;3.67;;
20928;SDS011;21895;47.072;15.132;2023-05-07T12:13:50;5.68;;;4.10;;
20928;SDS011;21895;47.072;15.132;2023-05-07T12:16:17;4.72;;;3.85;;
20928;SDS011;21895;47.072;15.132;2023-05-07T12:18:45;4.75;;;4.10;;
20928;SDS011;21895;47.072;15.132;2023-05-07T12:21:12;4.35;;;3.58;;
20928;SDS011;21895;47.072;15.132;2023-05-07T12:23:39;7.03;;;4.05;;
20928;SDS011;21895;47.072;15.132;2023-05-07T12:26:06;5.40;;;3.60;;
20928;SDS011;21895;47.072;15.132;2023-05-07T12:28:37;4.50;;;4.03;;
20928;SDS011;21895;47.072;15.132;2023-05-07T12:31:04;3.95;;;3.60;;
20928;SDS011;21895;47.072;15.132;2023-05-07T12:33:33;4.47;;;3.80;;
20928;SDS011;21895;47.072;15.132;2023-05-07T12:36:05;4.60;;;4.00;;
20928;SDS011;21895;47.072;15.132;2023-05-07T12:38:39;5.18;;;4.22;;
20928;SDS011;21895;47.072;15.132;2023-05-07T12:41:07;4.35;;;3.95;;
20928;SDS011;21895;47.072;15.132;2023-05-07T12:43:35;8.48;;;4.10;;
20928;SDS011;21895;47.072;15.132;2023-05-07T12:46:06;4.60;;;4.10;;
20928;SDS011;21895;47.072;15.132;2023-05-07T12:48:33;4.68;;;3.87;;
20928;SDS011;21895;47.072;15.132;2023-05-07T12:51:03;4.12;;;3.62;;
20928;SDS011;21895;47.072;15.132;2023-05-07T12:53:31;5.15;;;3.83;;
20928;SDS011;21895;47.072;15.132;2023-05-07T12:55:58;5.30;;;4.30;;
20928;SDS011;21895;47.072;15.132;2023-05-07T12:58:29;3.85;;;3.15;;
20928;SDS011;21895;47.072;15.132;2023-05-07T13:00:59;4.35;;;3.12;;
20928;SDS011;21895;47.072;15.132;2023-05-07T13:03:34;2.70;;;2.50;;
20928;SDS011;21895;47.072;15.132;2023-05-07T13:06:04;6.50;;;2.55;;
20928;SDS011;21895;47.072;15.132;2023-05-07T13:08:36;3.75;;;2.00;;
20928;SDS011;21895;47.072;15.132;2023-05-07T13:11:10;6.22;;;1.70;;
20928;SDS011;21895;47.072;15.132;2023-05-07T13:13:38;1.12;;;1.10;;
20928;SDS011;21895;47.072;15.132;2023-05-07T13:16:07;1.62;;;1.20;;
20928;SDS011;21895;47.072;15.132;2023-05-07T13:18:37;3.75;;;1.30;;
20928;SDS011;21895;47.072;15.132;2023-05-07T13:21:06;4.32;;;1.30;;
20928;SDS011;21895;47.072;15.132;2023-05-07T13:23:33;4.07;;;1.30;;
20928;SDS011;21895;47.072;15.132;2023-05-07T13:26:00;1.25;;;1.15;;
20928;SDS011;21895;47.072;15.132;2023-05-07T13:28:33;2.40;;;1.30;;
20928;SDS011;21895;47.072;15.132;2023-05-07T13:31:00;1.40;;;1.20;;
20928;SDS011;21895;47.072;15.132;2023-05-07T13:33:27;0.90;;;0.90;;
20928;SDS011;21895;47.072;15.132;2023-05-07T13:35:53;1.75;;;1.10;;
20928;SDS011;21895;47.072;15.132;2023-05-07T13:38:22;4.35;;;1.58;;
20928;SDS011;21895;47.072;15.132;2023-05-07T13:40:50;2.47;;;1.23;;
20928;SDS011;21895;47.072;15.132;2023-05-07T13:43:16;3.05;;;1.30;;
20928;SDS011;21895;47.072;15.132;2023-05-07T13:45:44;3.05;;;1.60;;
20928;SDS011;21895;47.072;15.132;2023-05-07T13:48:10;2.87;;;1.10;;
20928;SDS011;21895;47.072;15.132;2023-05-07T13:50:37;7.05;;;1.40;;
20928;SDS011;21895;47.072;15.132;2023-05-07T13:53:03;2.95;;;1.25;;
20928;SDS011;21895;47.072;15.132;2023-05-07T13:55:30;4.25;;;1.15;;
20928;SDS011;21895;47.072;15.132;2023-05-07T13:58:00;2.92;;;2.03;;
20928;SDS011;21895;47.072;15.132;2023-05-07T14:00:32;2.33;;;1.50;;
20928;SDS011;21895;47.072;15.132;2023-05-07T14:02:59;6.68;;;1.50;;
20928;SDS011;21895;47.072;15.132;2023-05-07T14:05:25;3.00;;;1.67;;
20928;SDS011;21895;47.072;15.132;2023-05-07T14:07:55;6.62;;;1.58;;
20928;SDS011;21895;47.072;15.132;2023-05-07T14:10:23;7.05;;;1.87;;
20928;SDS011;21895;47.072;15.132;2023-05-07T14:12:50;4.32;;;1.80;;
20928;SDS011;21895;47.072;15.132;2023-05-07T14:15:18;11.23;;;2.55;;
20928;SDS011;21895;47.072;15.132;2023-05-07T14:17:44;14.95;;;1.87;;
20928;SDS011;21895;47.072;15.132;2023-05-07T14:20:12;10.45;;;2.47;;
20928;SDS011;21895;47.072;15.132;2023-05-07T14:22:39;4.62;;;2.08;;
20928;SDS011;21895;47.072;15.132;2023-05-07T14:25:06;3.37;;;2.03;;
20928;SDS011;21895;47.072;15.132;2023-05-07T14:27:34;4.07;;;2.35;;
20928;SDS011;21895;47.072;15.132;2023-05-07T14:30:01;5.47;;;2.15;;
20928;SDS011;21895;47.072;15.132;2023-05-07T14:32:28;3.80;;;2.00;;
20928;SDS011;21895;47.072;15.132;2023-05-07T14:34:54;8.57;;;1.85;;
20928;SDS011;21895;47.072;15.132;2023-05-07T14:37:21;2.22;;;1.60;;
20928;SDS011;21895;47.072;15.132;2023-05-07T14:39:47;16.62;;;1.77;;
20928;SDS011;21895;47.072;15.132;2023-05-07T14:42:16;2.62;;;1.48;;
20928;SDS011;21895;47.072;15.132;2023-05-07T14:44:43;2.33;;;1.55;;
20928;SDS011;21895;47.072;15.132;2023-05-07T14:47:10;3.95;;;1.98;;
20928;SDS011;21895;47.072;15.132;2023-05-07T14:49:37;4.82;;;1.87;;
20928;SDS011;21895;47.072;15.132;2023-05-07T14:52:04;4.35;;;1.85;;
20928;SDS011;21895;47.072;15.132;2023-05-07T14:54:33;3.80;;;1.62;;
20928;SDS011;21895;47.072;15.132;2023-05-07T14:57:04;1.75;;;1.27;;
20928;SDS011;21895;47.072;15.132;2023-05-07T14:59:32;2.35;;;1.45;;
20928;SDS011;21895;47.072;15.132;2023-05-07T15:01:59;1.92;;;1.40;;